Time;durP1;ratioP1;P1;durP2;ratioP2;P2;SDS_P1;SDS_P2;PMS_P1;PMS_P2;Temp;Humidity;BMP_temperature;BMP_pressure;BME280_temperature;BME280_humidity;BME280_pressure;Samples;Min_cycle;Max_cycle;Signal;HPM_P1;HPM_P2
2023/07/04 00:00:16;;;;;;;3.40;1.93;;;;;;;19.25;78.24;99355.91;5093477;28;20094;-66
2023/07/04 00:02:46;;;;;;;1.63;1.13;;;;;;;19.24;78.40;99352.47;5093814;28;20272;-66
2023/07/04 00:05:15;;;;;;;1.83;1.48;;;;;;;19.26;78.58;99355.03;5093744;28;20056;-66
2023/07/04 00:07:44;;;;;;;5.40;1.95;;;;;;;19.26;78.65;99355.03;5093469;28;20044;-66
2023/07/04 00:10:13;;;;;;;1.43;1.10;;;;;;;19.23;78.98;99353.41;5093685;28;20062;-66
2023/07/04 00:12:44;;;;;;;1.05;1.00;;;;;;;19.17;78.80;99342.47;5093409;28;20032;-66
2023/07/04 00:15:13;;;;;;;4.60;1.67;;;;;;;19.10;79.28;99348.81;5093372;28;20075;-66
2023/07/04 00:17:44;;;;;;;1.23;0.80;;;;;;;19.11;79.24;99347.88;5093531;28;20398;-67
2023/07/04 00:20:13;;;;;;;1.35;1.08;;;;;;;19.14;79.43;99351.19;5093338;28;20044;-67
2023/07/04 00:22:44;;;;;;;1.80;1.63;;;;;;;19.16;79.48;99343.34;5093512;28;20046;-66
2023/07/04 00:25:13;;;;;;;1.70;1.60;;;;;;;19.16;79.75;99343.34;5093376;28;20117;-66
2023/07/04 00:27:43;;;;;;;3.37;2.07;;;;;;;19.18;79.77;99346.72;5093012;28;20048;-67
2023/07/04 00:30:14;;;;;;;1.48;1.38;;;;;;;19.19;79.80;99354.44;5093277;28;20277;-66
2023/07/04 00:32:43;;;;;;;10.45;1.30;;;;;;;19.18;79.74;99354.50;5093477;28;20036;-67
2023/07/04 00:35:13;;;;;;;2.30;1.50;;;;;;;19.20;79.80;99356.09;5093506;28;20394;-66
2023/07/04 00:37:43;;;;;;;1.52;1.42;;;;;;;19.24;79.61;99360.25;5093397;28;20087;-67
2023/07/04 00:40:13;;;;;;;1.00;0.95;;;;;;;19.17;79.61;99358.00;5092318;28;20130;-66
2023/07/04 00:42:45;;;;;;;4.68;2.88;;;;;;;19.09;79.91;99360.88;5094624;28;20055;-66
2023/07/04 00:45:20;;;;;;;1.83;1.60;;;;;;;19.11;80.16;99358.22;5096947;28;20055;-67
2023/07/04 00:47:56;;;;;;;1.17;1.08;;;;;;;19.12;80.26;99354.75;5097195;28;20083;-66
2023/07/04 00:50:29;;;;;;;1.42;1.33;;;;;;;19.15;80.07;99355.44;5095758;28;20052;-67
2023/07/04 00:53:04;;;;;;;4.43;2.13;;;;;;;19.15;80.02;99359.78;5095669;28;20421;-66
2023/07/04 00:55:37;;;;;;;1.60;1.38;;;;;;;19.18;79.60;99360.50;5096723;28;20097;-67
2023/07/04 00:58:09;;;;;;;2.72;1.58;;;;;;;19.21;79.60;99364.72;5096623;28;20086;-66
2023/07/04 01:00:39;;;;;;;4.50;1.13;;;;;;;19.23;79.46;99365.50;5096666;28;20051;-66
2023/07/04 01:03:11;;;;;;;2.53;1.77;;;;;;;19.32;79.45;99352.16;5096554;28;20036;-66
2023/07/04 01:05:48;;;;;;;5.68;1.10;;;;;;;19.34;79.31;99365.88;5095356;28;20047;-67
2023/07/04 01:08:23;;;;;;;2.53;1.80;;;;;;;19.28;79.02;99367.00;5095681;28;20047;-67
2023/07/04 01:10:53;;;;;;;3.92;1.85;;;;;;;19.26;79.07;99367.97;5095252;28;20131;-67
2023/07/04 01:13:35;;;;;;;3.40;1.42;;;;;;;19.26;78.91;99370.56;5096440;28;20551;-66
2023/07/04 01:16:05;;;;;;;3.00;1.25;;;;;;;19.28;78.53;99366.16;5095474;28;20044;-67
2023/07/04 01:18:34;;;;;;;0.77;0.77;;;;;;;19.31;78.08;99371.22;5096192;28;20040;-67
2023/07/04 01:21:07;;;;;;;2.63;1.75;;;;;;;19.30;77.80;99364.34;5096247;28;20044;-66
2023/07/04 01:23:45;;;;;;;1.23;1.13;;;;;;;19.28;77.53;99366.16;5095038;28;20490;-66
2023/07/04 01:26:24;;;;;;;2.58;1.58;;;;;;;19.23;77.55;99368.09;5096251;28;20051;-67
2023/07/04 01:28:55;;;;;;;0.98;0.93;;;;;;;19.23;77.54;99373.25;5096378;28;20040;-66
2023/07/04 01:31:27;;;;;;;2.95;2.15;;;;;;;19.21;77.46;99365.56;5096149;28;20105;-66
2023/07/04 01:33:56;;;;;;;1.40;1.30;;;;;;;19.23;77.76;99373.25;5096221;28;20066;-67
2023/07/04 01:36:30;;;;;;;4.75;0.85;;;;;;;19.18;77.98;99367.44;5095838;28;20040;-66
2023/07/04 01:38:59;;;;;;;1.63;0.95;;;;;;;19.11;78.19;99366.00;5095027;28;20486;-66
2023/07/04 01:41:30;;;;;;;2.90;1.02;;;;;;;19.05;78.61;99369.66;5096109;28;20132;-66
2023/07/04 01:44:02;;;;;;;15.68;1.45;;;;;;;19.03;78.85;99373.22;5096038;28;20044;-67
2023/07/04 01:46:32;;;;;;;2.40;1.33;;;;;;;18.99;78.93;99363.91;5096544;28;20462;-67
2023/07/04 01:49:01;;;;;;;;;;;;;;;18.94;79.13;99371.00;5094927;28;20138;-67
2023/07/04 01:51:32;;;;;;;3.20;1.38;;;;;;;18.90;79.37;99369.44;5095944;28;19931;-67
2023/07/04 01:54:02;;;;;;;0.77;0.77;;;;;;;18.91;79.52;99371.13;5094350;28;20044;-66
2023/07/04 01:56:34;;;;;;;15.75;1.52;;;;;;;18.90;79.72;99370.28;5095571;28;20127;-67
2023/07/04 01:59:03;;;;;;;4.32;2.53;;;;;;;18.94;79.56;99366.66;5094398;28;20128;-67
2023/07/04 02:01:32;;;;;;;6.50;2.03;;;;;;;19.01;79.47;99377.59;5095519;28;20525;-66
2023/07/04 02:04:01;;;;;;;2.08;1.90;;;;;;;19.00;79.37;99381.97;5095322;28;20040;-66
2023/07/04 02:06:30;;;;;;;1.65;1.40;;;;;;;18.89;79.24;99372.91;5095405;28;20040;-67
2023/07/04 02:08:59;;;;;;;31.10;2.45;;;;;;;18.85;79.63;99371.34;5095618;28;20044;-67
2023/07/04 02:11:28;;;;;;;1.08;0.98;;;;;;;18.80;79.93;99363.78;5095267;28;20063;-66
2023/07/04 02:13:59;;;;;;;4.10;2.33;;;;;;;18.78;80.15;99364.75;5094332;28;20067;-67
2023/07/04 02:16:28;;;;;;;2.67;1.58;;;;;;;18.78;80.17;99367.34;5095313;28;20093;-66
2023/07/04 02:18:59;;;;;;;2.58;1.80;;;;;;;18.85;80.16;99361.00;5095420;28;20127;-66
2023/07/04 02:21:28;;;;;;;2.42;2.22;;;;;;;18.88;79.81;99355.72;5095020;28;20090;-66
2023/07/04 02:23:57;;;;;;;1.58;0.95;;;;;;;18.88;79.84;99363.50;5095215;28;20450;-66
2023/07/04 02:26:26;;;;;;;0.90;0.88;;;;;;;18.85;79.78;99355.84;5094884;28;20089;-68
2023/07/04 02:28:55;;;;;;;2.05;0.98;;;;;;;18.89;79.79;99362.56;5095199;28;20036;-66
2023/07/04 02:31:26;;;;;;;1.75;1.50;;;;;;;18.91;79.70;99363.38;5095210;28;20039;-66
2023/07/04 02:33:55;;;;;;;3.70;1.38;;;;;;;18.91;79.94;99376.31;5093639;28;20056;-67
2023/07/04 02:36:24;;;;;;;2.20;1.15;;;;;;;18.92;79.60;99372.78;5094668;28;20036;-66
2023/07/04 02:38:53;;;;;;;2.65;1.75;;;;;;;18.90;79.56;99379.78;5093440;28;20054;-66
2023/07/04 02:41:23;;;;;;;1.80;1.48;;;;;;;18.94;79.27;99376.16;5094742;28;20051;-66
2023/07/04 02:43:55;;;;;;;0.90;0.90;;;;;;;18.96;79.01;99375.19;5094670;28;20089;-67
2023/07/04 02:46:26;;;;;;;0.82;0.82;;;;;;;18.97;78.75;99373.47;5094551;28;20525;-66
2023/07/04 02:48:59;;;;;;;9.65;1.83;;;;;;;19.01;78.86;99377.59;5094893;28;20042;-66
2023/07/04 02:51:28;;;;;;;0.80;0.75;;;;;;;18.97;78.78;99378.63;5094816;28;20067;-66
2023/07/04 02:53:57;;;;;;;1.30;1.03;;;;;;;18.87;78.85;99374.72;5094462;28;20067;-66
2023/07/04 02:56:26;;;;;;;1.90;1.70;;;;;;;18.78;79.52;99369.91;5093136;28;20323;-67
2023/07/04 02:58:55;;;;;;;1.77;1.33;;;;;;;18.70;79.74;99378.81;5093152;28;20043;-66
2023/07/04 03:01:26;;;;;;;2.72;1.65;;;;;;;18.69;80.14;99378.88;5094333;28;20076;-66
2023/07/04 03:03:56;;;;;;;0.82;0.82;;;;;;;18.65;80.12;99383.31;5093431;28;20068;-66
2023/07/04 03:06:26;;;;;;;2.00;1.40;;;;;;;18.56;80.56;99381.09;5093280;28;20048;-66
2023/07/04 03:08:57;;;;;;;3.22;1.20;;;;;;;18.58;80.78;99393.94;5093972;28;20043;-66
2023/07/04 03:11:26;;;;;;;1.60;0.98;;;;;;;18.59;81.00;99396.50;5093299;28;20040;-67
2023/07/04 03:13:57;;;;;;;0.70;0.70;;;;;;;18.56;80.97;99396.59;5094178;28;20048;-67
2023/07/04 03:16:29;;;;;;;2.90;1.55;;;;;;;18.56;81.26;99401.75;5095209;28;20047;-66
2023/07/04 03:18:59;;;;;;;1.38;1.27;;;;;;;18.52;81.17;99413.09;5092863;28;20498;-66
2023/07/04 03:21:27;;;;;;;4.00;1.23;;;;;;;18.52;81.23;99415.69;5076197;28;20046;-66
2023/07/04 03:23:58;;;;;;;0.80;0.80;;;;;;;18.50;81.17;99416.66;5126840;27;20131;-67
2023/07/04 03:26:27;;;;;;;0.77;0.77;;;;;;;18.44;81.23;99419.44;5092848;28;20127;-67
2023/07/04 03:28:57;;;;;;;1.88;1.63;;;;;;;18.40;81.29;99421.31;5094102;28;20475;-66
2023/07/04 03:31:26;;;;;;;1.13;0.98;;;;;;;18.40;81.50;99426.47;5093842;28;20122;-66
2023/07/04 03:33:57;;;;;;;5.18;2.05;;;;;;;18.32;81.31;99422.47;5092770;28;20052;-67
2023/07/04 03:36:26;;;;;;;3.35;1.45;;;;;;;18.30;81.63;99434.59;5092964;28;20430;-66
2023/07/04 03:38:55;;;;;;;1.03;0.93;;;;;;;18.33;81.75;99445.66;5093542;28;20126;-67
2023/07/04 03:41:28;;;;;;;0.98;0.95;;;;;;;18.38;81.88;99442.94;5094049;28;20272;-66
2023/07/04 03:43:57;;;;;;;;;;;;;;;18.38;81.65;99438.56;5094153;28;20032;-66
2023/07/04 03:46:26;;;;;;;4.93;1.83;;;;;;;18.39;81.95;99442.88;5092338;28;19927;-67
2023/07/04 03:48:55;;;;;;;3.63;1.23;;;;;;;18.39;81.79;99450.63;5093510;28;20052;-66
2023/07/04 03:51:25;;;;;;;0.90;0.90;;;;;;;18.37;81.64;99452.41;5092694;28;20755;-66
2023/07/04 03:53:54;;;;;;;2.15;1.45;;;;;;;18.35;82.11;99446.47;5093602;28;20052;-66
2023/07/04 03:56:23;;;;;;;2.42;2.22;;;;;;;18.37;82.06;99452.41;5092356;28;20063;-66
2023/07/04 03:58:52;;;;;;;1.80;1.52;;;;;;;18.40;82.14;99452.31;5092222;28;20055;-66
2023/07/04 04:01:21;;;;;;;1.23;0.90;;;;;;;18.42;82.08;99450.50;5093536;28;20055;-67
2023/07/04 04:03:53;;;;;;;1.33;0.93;;;;;;;18.45;81.98;99444.38;5093805;28;20037;-66
2023/07/04 04:06:23;;;;;;;1.25;0.98;;;;;;;18.46;81.80;99446.94;5093491;28;20055;-66
2023/07/04 04:08:53;;;;;;;1.30;1.07;;;;;;;18.48;81.95;99460.66;5093661;28;20482;-66
2023/07/04 04:11:22;;;;;;;1.30;1.20;;;;;;;18.51;81.90;99462.28;5093777;28;20060;-66
2023/07/04 04:13:51;;;;;;;2.87;1.00;;;;;;;18.51;81.77;99464.88;5093408;28;20041;-65
2023/07/04 04:16:22;;;;;;;2.10;1.73;;;;;;;18.46;81.77;99452.09;5094248;28;20048;-66
2023/07/04 04:18:52;;;;;;;2.85;2.33;;;;;;;18.44;81.67;99461.63;5097369;28;20502;-66
2023/07/04 04:21:21;;;;;;;3.00;1.40;;;;;;;18.45;81.71;99465.88;5097735;28;20097;-67
2023/07/04 04:23:51;;;;;;;0.70;0.70;;;;;;;18.52;81.52;99459.63;5097302;28;20046;-66
2023/07/04 04:26:23;;;;;;;2.55;2.30;;;;;;;18.45;81.26;99471.06;5097615;28;20059;-67
2023/07/04 04:28:53;;;;;;;1.55;1.45;;;;;;;18.40;81.28;99472.13;5097194;28;20044;-66
2023/07/04 04:31:22;;;;;;;1.42;1.00;;;;;;;18.31;81.10;99468.13;5097242;28;20101;-66
2023/07/04 04:33:51;;;;;;;2.75;1.30;;;;;;;18.21;81.42;99469.34;5097222;28;20508;-66
2023/07/04 04:36:20;;;;;;;1.13;1.07;;;;;;;18.18;81.84;99472.06;5097452;28;20068;-66
2023/07/04 04:38:49;;;;;;;;;;;;;;;18.23;82.17;99475.31;5097411;28;20055;-65
2023/07/04 04:41:18;;;;;;;1.70;1.27;;;;;;;18.37;82.34;99478.25;5097908;28;19942;-66
2023/07/04 04:43:51;;;;;;;0.57;0.57;;;;;;;18.42;82.52;99471.19;5097007;28;20285;-66
2023/07/04 04:46:20;;;;;;;1.80;1.65;;;;;;;18.54;82.65;99472.50;5096954;28;20085;-66
2023/07/04 04:48:52;;;;;;;1.95;1.30;;;;;;;18.54;82.31;99469.94;5096852;28;20048;-66
2023/07/04 04:51:22;;;;;;;0.53;0.53;;;;;;;18.69;82.09;99464.22;5096818;28;20048;-66
2023/07/04 04:53:52;;;;;;;1.25;1.15;;;;;;;18.93;81.53;99468.44;5097073;28;20071;-65
2023/07/04 04:56:21;;;;;;;0.90;0.90;;;;;;;19.03;80.80;99472.34;5097015;28;20448;-65
2023/07/04 04:58:51;;;;;;;1.75;1.65;;;;;;;19.14;80.48;99471.97;5096830;28;20047;-65
2023/07/04 05:01:23;;;;;;;1.70;1.17;;;;;;;19.25;80.04;99475.81;5096939;28;20093;-65
2023/07/04 05:03:54;;;;;;;5.47;1.67;;;;;;;19.41;79.50;99491.63;5096659;28;20047;-65
2023/07/04 05:06:26;;;;;;;1.05;0.95;;;;;;;19.53;79.10;99495.47;5095397;28;20568;-65
2023/07/04 05:08:55;;;;;;;1.65;1.55;;;;;;;19.68;78.80;99492.25;5096826;28;20040;-66
2023/07/04 05:11:28;;;;;;;2.50;1.40;;;;;;;19.75;78.28;99499.69;5096410;28;20052;-65
2023/07/04 05:13:58;;;;;;;4.95;1.27;;;;;;;19.82;77.91;99503.72;5096364;28;20040;-65
2023/07/04 05:16:27;;;;;;;3.25;1.80;;;;;;;19.80;77.30;99502.94;5095169;28;20051;-65
2023/07/04 05:18:56;;;;;;;3.65;2.67;;;;;;;19.74;77.26;99510.97;5096443;28;20047;-65
2023/07/04 05:21:26;;;;;;;1.70;1.10;;;;;;;19.83;77.20;99510.59;5096107;28;20498;-66
2023/07/04 05:23:55;;;;;;;2.50;1.00;;;;;;;19.91;77.57;99507.69;5096550;28;20056;-66
2023/07/04 05:26:26;;;;;;;0.98;0.80;;;;;;;19.94;77.88;99508.41;5096477;28;20548;-65
2023/07/04 05:28:59;;;;;;;1.23;1.13;;;;;;;19.90;78.37;99509.44;5095474;28;20068;-65
2023/07/04 05:31:32;;;;;;;2.72;2.35;;;;;;;19.99;78.69;99505.63;5096009;28;20516;-65
2023/07/04 05:34:02;;;;;;;1.02;1.02;;;;;;;20.04;79.09;99514.88;5096692;28;20509;-65
2023/07/04 05:36:33;;;;;;;3.70;1.60;;;;;;;20.08;79.33;99510.44;5095967;28;20074;-65
2023/07/04 05:39:05;;;;;;;1.17;1.08;;;;;;;20.12;79.35;99519.75;5096181;28;20040;-65
2023/07/04 05:41:38;;;;;;;4.45;1.85;;;;;;;20.22;79.33;99520.22;5096069;28;20456;-65
2023/07/04 05:44:10;;;;;;;2.72;1.02;;;;;;;20.34;79.29;99519.72;5096090;28;20451;-65
2023/07/04 05:46:40;;;;;;;3.03;2.10;;;;;;;20.50;78.81;99512.97;5095901;28;20044;-65
2023/07/04 05:49:09;;;;;;;1.53;1.13;;;;;;;20.65;78.16;99517.47;5095830;28;20032;-65
2023/07/04 05:51:38;;;;;;;3.92;2.47;;;;;;;20.85;77.29;99514.81;5095876;28;20303;-65
2023/07/04 05:54:07;;;;;;;2.33;1.65;;;;;;;20.99;76.21;99533.22;5095555;28;20048;-64
2023/07/04 05:56:36;;;;;;;1.73;1.63;;;;;;;21.03;75.42;99533.91;5096128;28;20039;-65
2023/07/04 05:59:05;;;;;;;1.92;1.45;;;;;;;21.06;74.44;99539.84;5096542;28;20371;-64
2023/07/04 06:01:38;;;;;;;1.33;1.23;;;;;;;20.98;73.97;99531.53;5095268;28;20040;-64
2023/07/04 06:04:08;;;;;;;1.05;0.82;;;;;;;21.04;73.96;99536.44;5095694;28;20074;-65
2023/07/04 06:06:40;;;;;;;1.33;1.13;;;;;;;21.10;73.74;99533.59;5095417;28;20052;-65
2023/07/04 06:09:12;;;;;;;1.25;1.02;;;;;;;21.12;73.67;99534.38;5095701;28;20044;-65
2023/07/04 06:11:45;;;;;;;1.38;1.25;;;;;;;21.13;73.42;99530.88;5095604;28;20141;-65
2023/07/04 06:14:17;;;;;;;2.75;1.60;;;;;;;21.23;73.42;99532.13;5095501;28;20409;-65
2023/07/04 06:16:47;;;;;;;0.82;0.75;;;;;;;21.38;73.18;99536.59;5094862;28;20108;-68
2023/07/04 06:19:17;;;;;;;1.30;1.20;;;;;;;21.44;72.66;99532.03;5108384;28;20083;-65
2023/07/04 06:21:46;;;;;;;3.85;1.98;;;;;;;21.43;72.21;99532.97;5113457;28;20043;-66
2023/07/04 06:24:17;;;;;;;1.67;1.57;;;;;;;21.47;71.84;99542.28;5112005;27;20069;-65
2023/07/04 06:26:46;;;;;;;2.05;1.27;;;;;;;21.57;71.68;99535.75;5094773;28;20048;-65
2023/07/04 06:29:14;;;;;;;2.17;2.00;;;;;;;21.60;71.52;99545.97;5093989;28;20490;-65
2023/07/04 06:31:43;;;;;;;3.55;2.33;;;;;;;21.68;71.25;99549.03;5095256;28;20038;-65
2023/07/04 06:34:14;;;;;;;2.72;1.35;;;;;;;21.71;70.91;99546.31;5094544;28;20089;-67
2023/07/04 06:36:49;;;;;;;1.58;1.48;;;;;;;21.83;70.81;99559.56;5098586;28;20127;-69
2023/07/04 06:39:18;;;;;;;3.05;2.17;;;;;;;21.91;70.97;99556.59;5095424;28;20043;-65
2023/07/04 06:41:49;;;;;;;15.18;1.55;;;;;;;21.95;70.67;99555.56;5114997;28;20040;-65
2023/07/04 06:44:21;;;;;;;2.88;1.95;;;;;;;22.03;70.46;99556.00;5108052;28;20056;-65
2023/07/04 06:46:50;;;;;;;10.93;1.80;;;;;;;22.07;70.27;99547.16;5103932;28;20043;-65
2023/07/04 06:49:20;;;;;;;1.57;1.47;;;;;;;22.01;70.34;99553.47;5115038;28;20059;-65
2023/07/04 06:51:49;;;;;;;2.55;1.45;;;;;;;22.09;70.57;99558.31;5115147;28;20279;-65
2023/07/04 06:54:18;;;;;;;2.23;1.93;;;;;;;22.19;70.55;99556.94;5115874;28;20366;-65
2023/07/04 06:56:46;;;;;;;3.10;1.03;;;;;;;22.25;70.16;99556.63;5113752;28;20375;-65
2023/07/04 06:59:15;;;;;;;1.97;1.70;;;;;;;22.31;69.83;99551.13;5100802;28;20319;-64
2023/07/04 07:01:44;;;;;;;2.67;1.75;;;;;;;22.38;69.34;99552.50;5094528;28;20047;-65
2023/07/04 07:04:16;;;;;;;3.45;1.73;;;;;;;22.44;69.08;99546.97;5094518;28;20042;-64
2023/07/04 07:06:46;;;;;;;2.83;1.50;;;;;;;22.44;69.08;99546.13;5096525;28;20135;-64
2023/07/04 07:09:15;;;;;;;2.50;1.63;;;;;;;22.53;69.02;99546.47;5094241;28;20494;-64
2023/07/04 07:11:43;;;;;;;2.00;1.40;;;;;;;22.64;68.63;99539.00;5093499;28;20054;-65
2023/07/04 07:14:12;;;;;;;1.83;1.00;;;;;;;22.63;68.09;99539.91;5094039;28;20375;-65
2023/07/04 07:16:41;;;;;;;1.15;1.00;;;;;;;22.59;67.78;99530.56;5094009;28;20071;-64
2023/07/04 07:19:10;;;;;;;1.70;1.48;;;;;;;22.68;67.96;99535.31;5094326;28;20115;-65
2023/07/04 07:21:42;;;;;;;1.52;1.42;;;;;;;22.75;68.35;99542.81;5093989;28;20063;-64
2023/07/04 07:24:13;;;;;;;3.20;1.53;;;;;;;22.89;68.41;99537.72;5095171;28;20036;-65
2023/07/04 07:26:43;;;;;;;1.13;1.02;;;;;;;22.81;67.89;99538.13;5093918;28;20508;-65
2023/07/04 07:29:12;;;;;;;1.73;1.33;;;;;;;22.80;67.18;99535.59;5093927;28;20048;-65
2023/07/04 07:31:41;;;;;;;1.92;1.75;;;;;;;22.92;66.66;99537.53;5095694;28;20048;-64
2023/07/04 07:34:09;;;;;;;2.63;2.05;;;;;;;23.15;66.66;99539.75;5093744;28;20043;-64
2023/07/04 07:36:42;;;;;;;2.50;2.20;;;;;;;23.27;66.24;99544.31;5094024;28;20440;-64
2023/07/04 07:39:14;;;;;;;3.20;2.28;;;;;;;23.41;66.17;99531.41;5093720;28;20051;-64
2023/07/04 07:41:45;;;;;;;1.80;1.65;;;;;;;23.51;65.23;99537.78;5101631;28;20036;-64
2023/07/04 07:44:16;;;;;;;1.58;1.13;;;;;;;23.64;64.45;99533.53;5112733;28;20047;-64
2023/07/04 07:46:45;;;;;;;9.95;1.67;;;;;;;23.77;63.92;99539.75;5100692;28;20046;-65
2023/07/04 07:49:14;;;;;;;2.40;2.20;;;;;;;23.85;63.37;99542.75;5106510;28;20039;-65
2023/07/04 07:51:43;;;;;;;2.10;1.50;;;;;;;24.05;63.11;99543.38;5113349;28;20126;-64
2023/07/04 07:54:14;;;;;;;6.18;2.10;;;;;;;24.29;63.07;99547.19;5096346;28;20544;-65
2023/07/04 07:56:48;;;;;;;1.88;1.60;;;;;;;24.32;62.58;99541.81;5093454;28;20057;-64
2023/07/04 07:59:17;;;;;;;2.08;1.10;;;;;;;24.21;62.26;99549.44;5092437;28;20052;-64
2023/07/04 08:01:47;;;;;;;3.83;0.98;;;;;;;24.24;62.21;99549.22;5096275;28;20044;-65
2023/07/04 08:04:16;;;;;;;1.25;1.15;;;;;;;24.32;61.97;99547.03;5103682;28;20052;-65
2023/07/04 08:06:46;;;;;;;2.38;2.17;;;;;;;24.20;59.94;99545.13;5113820;28;20047;-64
2023/07/04 08:09:19;;;;;;;0.93;0.85;;;;;;;24.19;59.47;99552.09;5113796;28;20077;-64
2023/07/04 08:11:48;;;;;;;2.03;1.50;;;;;;;24.47;59.12;99546.13;5114119;28;20051;-65
2023/07/04 08:14:19;;;;;;;1.40;1.30;;;;;;;24.75;58.42;99551.34;5112607;28;20075;-66
2023/07/04 08:16:49;;;;;;;2.22;1.52;;;;;;;24.83;57.25;99543.94;5094955;28;20040;-65
2023/07/04 08:19:21;;;;;;;2.35;1.50;;;;;;;25.03;56.67;99535.69;5093291;28;20051;-65
2023/07/04 08:21:50;;;;;;;2.40;2.20;;;;;;;25.23;55.95;99548.38;5093439;28;20044;-65
2023/07/04 08:24:20;;;;;;;0.50;0.50;;;;;;;25.28;55.13;99546.31;5099010;28;20036;-66
2023/07/04 08:26:53;;;;;;;1.85;0.82;;;;;;;25.57;55.36;99548.88;5112667;28;20052;-66
2023/07/04 08:29:22;;;;;;;1.05;1.00;;;;;;;25.57;54.68;99541.88;5113732;28;20385;-66
2023/07/04 08:31:52;;;;;;;0.68;0.68;;;;;;;25.66;53.09;99545.66;5113581;28;20128;-66
2023/07/04 08:34:20;;;;;;;1.75;0.90;;;;;;;25.77;52.93;99537.97;5112563;28;20113;-66
2023/07/04 08:36:49;;;;;;;0.55;0.55;;;;;;;25.84;51.77;99539.25;5113786;28;20423;-67
2023/07/04 08:39:20;;;;;;;5.10;1.00;;;;;;;25.94;51.90;99535.91;5113483;28;20035;-66
2023/07/04 08:41:56;;;;;;;2.10;1.38;;;;;;;26.14;52.38;99537.25;5113497;28;20039;-67
2023/07/04 08:44:34;;;;;;;1.20;1.10;;;;;;;26.14;51.69;99537.25;5112425;28;20055;-67
2023/07/04 08:47:03;;;;;;;1.90;1.63;;;;;;;26.33;52.14;99542.91;5113570;28;20070;-66
2023/07/04 08:49:34;;;;;;;;;;;;;;;26.31;50.46;99544.81;5113927;28;20093;-66
2023/07/04 08:52:09;;;;;;;2.05;1.48;;;;;;;26.30;49.27;99543.13;5108277;28;19919;-66
2023/07/04 08:54:40;;;;;;;1.80;1.42;;;;;;;26.46;49.44;99542.94;5096690;28;20418;-66
2023/07/04 08:57:28;;;;;;;0.63;0.63;;;;;;;26.73;49.64;99534.97;5092932;28;20040;-66
2023/07/04 09:00:04;;;;;;;17.80;1.27;;;;;;;26.85;48.68;99534.16;5093340;28;20131;-67
2023/07/04 09:03:05;;;;;;;3.70;2.35;;;;;;;26.97;47.56;99517.56;5092495;28;20086;-68
2023/07/04 09:05:44;;;;;;;0.93;0.90;;;;;;;27.16;47.22;99517.94;5089908;28;20051;-65
2023/07/04 09:08:21;;;;;;;0.80;0.80;;;;;;;27.31;46.75;99516.81;5096545;28;20051;-66
2023/07/04 09:10:55;;;;;;;0.80;0.77;;;;;;;27.44;45.77;99512.41;5095542;28;20044;-66
2023/07/04 09:13:28;;;;;;;1.30;0.93;;;;;;;27.48;45.01;99508.63;5096762;28;20043;-68
2023/07/04 09:16:02;;;;;;;0.75;0.75;;;;;;;27.22;44.07;99507.00;5097282;28;20044;-66
2023/07/04 09:18:37;;;;;;;1.92;1.52;;;;;;;27.32;43.34;99513.28;5096829;28;20127;-66
2023/07/04 09:21:12;;;;;;;4.43;0.98;;;;;;;27.33;43.37;99509.69;5104893;28;20067;-66
2023/07/04 09:23:42;;;;;;;1.08;0.98;;;;;;;27.38;43.31;99512.03;5116625;27;20055;-66
2023/07/04 09:26:16;;;;;;;1.27;0.93;;;;;;;27.40;43.29;99510.97;5116986;28;20135;-66
2023/07/04 09:28:48;;;;;;;15.45;1.80;;;;;;;27.48;42.61;99511.25;5116432;28;20043;-67
2023/07/04 09:31:21;;;;;;;0.93;0.90;;;;;;;27.40;42.37;99516.22;5114658;28;20039;-65
2023/07/04 09:33:53;;;;;;;0.55;0.55;;;;;;;27.32;41.69;99521.13;5099180;28;20494;-68
2023/07/04 09:36:27;;;;;;;2.42;1.42;;;;;;;27.29;41.52;99518.72;5100199;28;20036;-67
2023/07/04 09:39:00;;;;;;;1.00;0.93;;;;;;;27.30;40.87;99515.19;5095896;28;20508;-66
2023/07/04 09:41:33;;;;;;;0.80;0.80;;;;;;;27.44;40.74;99507.19;5095890;28;20040;-67
2023/07/04 09:44:15;;;;;;;1.20;1.10;;;;;;;27.51;40.29;99511.03;5095729;28;20047;-66
2023/07/04 09:46:49;;;;;;;3.58;1.25;;;;;;;27.36;39.63;99509.47;5109165;28;20051;-67
2023/07/04 09:49:27;;;;;;;1.55;1.25;;;;;;;27.33;39.75;99514.94;5116047;28;20055;-68
2023/07/04 09:52:03;;;;;;;1.23;1.13;;;;;;;27.55;39.57;99511.63;5116414;28;20047;-66
2023/07/04 09:54:33;;;;;;;0.90;0.90;;;;;;;27.70;39.16;99508.72;5116072;27;20512;-68
2023/07/04 09:57:24;;;;;;;0.65;0.65;;;;;;;27.68;38.37;99512.41;5103708;28;20066;-65
2023/07/04 09:59:54;;;;;;;0.73;0.63;;;;;;;27.74;38.12;99515.41;5095506;28;20044;-69
2023/07/04 10:02:33;;;;;;;1.58;1.35;;;;;;;27.82;38.33;99506.97;5095836;28;20036;-68
2023/07/04 10:05:02;;;;;;;0.98;0.95;;;;;;;27.84;38.21;99511.16;5094882;28;20140;-67
2023/07/04 10:07:31;;;;;;;0.60;0.60;;;;;;;28.01;38.97;99511.72;5095678;28;20392;-66
2023/07/04 10:10:04;;;;;;;0.63;0.60;;;;;;;28.07;38.45;99506.88;5094208;28;20033;-66
2023/07/04 10:12:42;;;;;;;1.20;1.10;;;;;;;28.15;38.31;99507.09;5095306;28;20032;-67
2023/07/04 10:15:19;;;;;;;0.57;0.57;;;;;;;28.37;38.37;99503.69;5100833;28;20057;-68
2023/07/04 10:17:48;;;;;;;0.63;0.52;;;;;;;28.41;38.17;99494.63;5094996;28;20416;-67
2023/07/04 10:20:17;;;;;;;0.85;0.80;;;;;;;28.40;38.04;99498.22;5095341;28;20481;-67
2023/07/04 10:22:52;;;;;;;0.70;0.70;;;;;;;28.73;38.86;99502.66;5101147;28;20119;-66
2023/07/04 10:25:23;;;;;;;0.75;0.75;;;;;;;29.06;39.67;99498.22;5096842;28;20048;-67
2023/07/04 10:27:57;;;;;;;1.30;0.95;;;;;;;29.22;39.22;99489.97;5094782;28;20052;-66
2023/07/04 10:30:31;;;;;;;0.95;0.68;;;;;;;29.37;39.71;99491.34;5095056;28;20040;-67
2023/07/04 10:33:04;;;;;;;1.55;1.30;;;;;;;29.40;38.30;99491.09;5100829;28;20486;-68
2023/07/04 10:35:39;;;;;;;0.70;0.70;;;;;;;29.25;37.56;99483.63;5103098;27;20138;-67
2023/07/04 10:38:22;;;;;;;0.95;0.95;;;;;;;29.07;37.21;99485.91;5103489;27;20052;-70
2023/07/04 10:40:52;;;;;;;2.70;1.58;;;;;;;28.89;37.20;99485.56;5093793;28;20063;-67
2023/07/04 10:43:29;;;;;;;0.73;0.70;;;;;;;28.99;37.03;99483.88;5104181;28;20043;-66
2023/07/04 10:46:01;;;;;;;4.60;1.35;;;;;;;28.97;37.19;99483.19;5115081;28;20051;-69
2023/07/04 10:48:35;;;;;;;1.30;0.73;;;;;;;28.79;36.78;99479.38;5115051;28;20064;-68
2023/07/04 10:51:08;;;;;;;0.45;0.45;;;;;;;28.71;36.84;99484.41;5114944;28;20046;-67
2023/07/04 10:53:37;;;;;;;0.50;0.50;;;;;;;28.79;36.92;99479.38;5104162;28;20047;-68
2023/07/04 10:56:10;;;;;;;0.82;0.70;;;;;;;28.80;36.74;99473.16;5094663;28;20036;-68
2023/07/04 10:58:44;;;;;;;0.85;0.75;;;;;;;29.05;37.29;99480.78;5094441;28;20160;-70
2023/07/04 11:01:21;;;;;;;0.80;0.80;;;;;;;29.14;36.90;99474.78;5094327;28;20056;-68
2023/07/04 11:03:56;;;;;;;0.93;0.88;;;;;;;29.13;36.29;99477.53;5103566;28;20054;-67
2023/07/04 11:06:31;;;;;;;0.70;0.70;;;;;;;29.40;37.07;99472.69;5114755;28;20067;-67
2023/07/04 11:09:04;;;;;;;1.38;1.27;;;;;;;29.63;37.21;99473.47;5114862;28;20048;-68
2023/07/04 11:11:35;;;;;;;0.68;0.68;;;;;;;29.54;36.64;99471.56;5114991;28;20122;-69
2023/07/04 11:14:08;;;;;;;0.90;0.90;;;;;;;29.39;36.00;99472.84;5113193;28;20035;-68
2023/07/04 11:16:41;;;;;;;0.50;0.50;;;;;;;29.40;36.56;99470.06;5115044;28;20043;-66
2023/07/04 11:19:17;;;;;;;0.73;0.73;;;;;;;29.76;37.81;99471.47;5114353;28;20047;-67
2023/07/04 11:22:11;;;;;;;0.35;0.35;;;;;;;30.19;37.63;99471.34;5114306;28;20040;-68
2023/07/04 11:24:44;;;;;;;1.05;0.95;;;;;;;30.34;36.38;99472.72;5097813;28;20040;-67
2023/07/04 11:27:16;;;;;;;0.40;0.40;;;;;;;30.12;35.42;99462.31;5092974;28;20052;-68
2023/07/04 11:29:50;;;;;;;0.57;0.57;;;;;;;30.10;35.50;99454.56;5093831;28;20055;-67
2023/07/04 11:32:25;;;;;;;0.40;0.40;;;;;;;29.99;35.03;99457.28;5093905;28;20047;-67
2023/07/04 11:35:03;;;;;;;4.30;0.80;;;;;;;29.97;35.31;99458.38;5092498;28;20050;-69
2023/07/04 11:37:38;;;;;;;0.95;0.77;;;;;;;29.66;35.25;99460.03;5106063;28;20040;-68
2023/07/04 11:40:20;;;;;;;0.63;0.63;;;;;;;29.56;35.52;99456.50;5108886;28;20075;-69
2023/07/04 11:42:53;;;;;;;0.60;0.60;;;;;;;29.45;35.39;99446.00;5100425;28;20049;-67
2023/07/04 11:45:25;;;;;;;0.50;0.50;;;;;;;29.51;35.99;99451.63;5099094;28;20048;-69
2023/07/04 11:48:01;;;;;;;0.95;0.88;;;;;;;29.42;36.04;99452.34;5093997;28;20115;-68
2023/07/04 11:50:35;;;;;;;0.40;0.40;;;;;;;29.50;35.81;99442.06;5093659;28;20051;-68
2023/07/04 11:53:12;;;;;;;1.15;1.05;;;;;;;29.90;36.80;99444.84;5104575;28;20116;-68